sensor_id;sensor_type;location;lat;lon;timestamp;P1;durP1;ratioP1;P2;durP2;ratioP2
14040;SDS011;7095;51.388;6.196;2023-05-07T00:01:16;29.13;;;22.93;;
14040;SDS011;7095;51.388;6.196;2023-05-07T00:03:46;27.67;;;23.57;;
14040;SDS011;7095;51.388;6.196;2023-05-07T00:06:15;27.57;;;22.77;;
14040;SDS011;7095;51.388;6.196;2023-05-07T00:08:44;31.53;;;23.47;;
14040;SDS011;7095;51.388;6.196;2023-05-07T00:11:13;28.47;;;23.73;;
14040;SDS011;7095;51.388;6.196;2023-05-07T00:13:42;30.13;;;20.93;;
14040;SDS011;7095;51.388;6.196;2023-05-07T00:16:10;28.93;;;23.20;;
14040;SDS011;7095;51.388;6.196;2023-05-07T00:18:41;36.03;;;23.47;;
14040;SDS011;7095;51.388;6.196;2023-05-07T00:21:09;30.13;;;25.50;;
14040;SDS011;7095;51.388;6.196;2023-05-07T00:23:38;27.20;;;21.43;;
14040;SDS011;7095;51.388;6.196;2023-05-07T00:26:07;24.40;;;20.80;;
14040;SDS011;7095;51.388;6.196;2023-05-07T00:28:36;28.33;;;23.73;;
14040;SDS011;7095;51.388;6.196;2023-05-07T00:31:05;30.90;;;22.93;;
14040;SDS011;7095;51.388;6.196;2023-05-07T00:33:33;30.53;;;24.83;;
14040;SDS011;7095;51.388;6.196;2023-05-07T00:36:04;33.77;;;24.73;;
14040;SDS011;7095;51.388;6.196;2023-05-07T00:38:33;30.10;;;24.60;;
14040;SDS011;7095;51.388;6.196;2023-05-07T00:41:02;29.77;;;25.93;;
14040;SDS011;7095;51.388;6.196;2023-05-07T00:43:30;31.20;;;26.60;;
14040;SDS011;7095;51.388;6.196;2023-05-07T00:46:00;31.47;;;25.70;;
14040;SDS011;7095;51.388;6.196;2023-05-07T00:48:29;30.87;;;25.77;;
14040;SDS011;7095;51.388;6.196;2023-05-07T00:50:58;31.37;;;25.87;;
14040;SDS011;7095;51.388;6.196;2023-05-07T00:53:28;31.87;;;26.53;;
14040;SDS011;7095;51.388;6.196;2023-05-07T00:55:58;35.83;;;27.03;;
14040;SDS011;7095;51.388;6.196;2023-05-07T00:58:27;37.13;;;26.40;;
14040;SDS011;7095;51.388;6.196;2023-05-07T01:00:57;33.13;;;26.00;;
14040;SDS011;7095;51.388;6.196;2023-05-07T01:03:26;31.33;;;26.13;;
14040;SDS011;7095;51.388;6.196;2023-05-07T01:05:55;29.13;;;24.83;;
14040;SDS011;7095;51.388;6.196;2023-05-07T01:08:29;28.43;;;24.37;;
14040;SDS011;7095;51.388;6.196;2023-05-07T01:11:02;28.50;;;22.63;;
14040;SDS011;7095;51.388;6.196;2023-05-07T01:13:32;32.63;;;25.97;;
14040;SDS011;7095;51.388;6.196;2023-05-07T01:16:03;28.93;;;25.13;;
14040;SDS011;7095;51.388;6.196;2023-05-07T01:18:33;37.30;;;25.97;;
14040;SDS011;7095;51.388;6.196;2023-05-07T01:21:04;35.90;;;26.33;;
14040;SDS011;7095;51.388;6.196;2023-05-07T01:23:34;30.00;;;22.27;;
14040;SDS011;7095;51.388;6.196;2023-05-07T01:26:04;32.07;;;25.73;;
14040;SDS011;7095;51.388;6.196;2023-05-07T01:28:33;31.97;;;25.57;;
14040;SDS011;7095;51.388;6.196;2023-05-07T01:31:02;28.60;;;23.33;;
14040;SDS011;7095;51.388;6.196;2023-05-07T01:33:34;28.57;;;22.07;;
14040;SDS011;7095;51.388;6.196;2023-05-07T01:36:06;29.90;;;24.57;;
14040;SDS011;7095;51.388;6.196;2023-05-07T01:38:39;33.40;;;26.53;;
14040;SDS011;7095;51.388;6.196;2023-05-07T01:41:09;31.93;;;24.80;;
14040;SDS011;7095;51.388;6.196;2023-05-07T01:43:40;40.27;;;27.07;;
14040;SDS011;7095;51.388;6.196;2023-05-07T01:46:11;27.63;;;23.63;;
14040;SDS011;7095;51.388;6.196;2023-05-07T01:48:41;31.30;;;24.07;;
14040;SDS011;7095;51.388;6.196;2023-05-07T01:51:13;30.37;;;24.70;;
14040;SDS011;7095;51.388;6.196;2023-05-07T01:53:43;29.33;;;24.87;;
14040;SDS011;7095;51.388;6.196;2023-05-07T01:56:15;25.43;;;21.90;;
14040;SDS011;7095;51.388;6.196;2023-05-07T01:58:44;31.90;;;25.93;;
14040;SDS011;7095;51.388;6.196;2023-05-07T02:01:14;27.73;;;22.87;;
14040;SDS011;7095;51.388;6.196;2023-05-07T02:03:43;29.77;;;24.00;;
14040;SDS011;7095;51.388;6.196;2023-05-07T02:06:19;28.10;;;23.00;;
14040;SDS011;7095;51.388;6.196;2023-05-07T02:08:51;32.60;;;24.37;;
14040;SDS011;7095;51.388;6.196;2023-05-07T02:11:21;31.53;;;24.67;;
14040;SDS011;7095;51.388;6.196;2023-05-07T02:13:50;31.50;;;24.63;;
14040;SDS011;7095;51.388;6.196;2023-05-07T02:16:20;30.93;;;23.47;;
14040;SDS011;7095;51.388;6.196;2023-05-07T02:18:50;29.90;;;21.70;;
14040;SDS011;7095;51.388;6.196;2023-05-07T02:21:19;26.80;;;21.30;;
14040;SDS011;7095;51.388;6.196;2023-05-07T02:23:48;22.43;;;19.03;;
14040;SDS011;7095;51.388;6.196;2023-05-07T02:26:18;22.63;;;20.10;;
14040;SDS011;7095;51.388;6.196;2023-05-07T02:28:48;30.20;;;21.20;;
14040;SDS011;7095;51.388;6.196;2023-05-07T02:31:17;27.10;;;21.13;;
14040;SDS011;7095;51.388;6.196;2023-05-07T02:33:46;27.17;;;20.37;;
14040;SDS011;7095;51.388;6.196;2023-05-07T02:36:16;24.33;;;20.20;;
14040;SDS011;7095;51.388;6.196;2023-05-07T02:39:00;26.37;;;19.63;;
14040;SDS011;7095;51.388;6.196;2023-05-07T02:41:31;34.80;;;24.23;;
14040;SDS011;7095;51.388;6.196;2023-05-07T02:44:00;33.90;;;23.27;;
14040;SDS011;7095;51.388;6.196;2023-05-07T02:46:30;32.27;;;24.10;;
14040;SDS011;7095;51.388;6.196;2023-05-07T02:49:03;34.63;;;24.03;;
14040;SDS011;7095;51.388;6.196;2023-05-07T02:51:33;31.80;;;23.90;;
14040;SDS011;7095;51.388;6.196;2023-05-07T02:54:07;35.90;;;24.50;;
14040;SDS011;7095;51.388;6.196;2023-05-07T02:56:37;29.97;;;25.37;;
14040;SDS011;7095;51.388;6.196;2023-05-07T02:59:06;28.70;;;21.77;;
14040;SDS011;7095;51.388;6.196;2023-05-07T03:01:39;33.93;;;25.80;;
14040;SDS011;7095;51.388;6.196;2023-05-07T03:04:08;29.83;;;24.50;;
14040;SDS011;7095;51.388;6.196;2023-05-07T03:06:38;36.07;;;28.27;;
14040;SDS011;7095;51.388;6.196;2023-05-07T03:09:06;36.13;;;26.13;;
14040;SDS011;7095;51.388;6.196;2023-05-07T03:11:35;36.83;;;26.63;;
14040;SDS011;7095;51.388;6.196;2023-05-07T03:14:06;31.87;;;27.03;;
14040;SDS011;7095;51.388;6.196;2023-05-07T03:16:34;34.77;;;26.37;;
14040;SDS011;7095;51.388;6.196;2023-05-07T03:19:03;32.97;;;26.17;;
14040;SDS011;7095;51.388;6.196;2023-05-07T03:21:32;32.30;;;26.00;;
14040;SDS011;7095;51.388;6.196;2023-05-07T03:24:01;32.73;;;24.17;;
14040;SDS011;7095;51.388;6.196;2023-05-07T03:26:30;32.73;;;23.83;;
14040;SDS011;7095;51.388;6.196;2023-05-07T03:29:00;25.77;;;22.53;;
14040;SDS011;7095;51.388;6.196;2023-05-07T03:31:29;26.00;;;20.70;;
14040;SDS011;7095;51.388;6.196;2023-05-07T03:34:00;26.00;;;22.23;;
14040;SDS011;7095;51.388;6.196;2023-05-07T03:36:29;28.47;;;21.83;;
14040;SDS011;7095;51.388;6.196;2023-05-07T03:38:58;31.70;;;23.93;;
14040;SDS011;7095;51.388;6.196;2023-05-07T03:41:35;29.70;;;23.53;;
14040;SDS011;7095;51.388;6.196;2023-05-07T03:44:05;31.17;;;25.37;;
14040;SDS011;7095;51.388;6.196;2023-05-07T03:46:34;33.10;;;26.87;;
14040;SDS011;7095;51.388;6.196;2023-05-07T03:49:03;32.83;;;26.33;;
14040;SDS011;7095;51.388;6.196;2023-05-07T03:51:32;29.90;;;25.70;;
14040;SDS011;7095;51.388;6.196;2023-05-07T03:54:04;33.77;;;25.97;;
14040;SDS011;7095;51.388;6.196;2023-05-07T03:56:33;34.10;;;25.53;;
14040;SDS011;7095;51.388;6.196;2023-05-07T03:59:02;30.83;;;25.70;;
14040;SDS011;7095;51.388;6.196;2023-05-07T04:01:35;30.73;;;25.47;;
14040;SDS011;7095;51.388;6.196;2023-05-07T04:04:04;30.83;;;25.57;;
14040;SDS011;7095;51.388;6.196;2023-05-07T04:06:34;35.00;;;25.70;;
14040;SDS011;7095;51.388;6.196;2023-05-07T04:09:04;27.97;;;24.43;;
14040;SDS011;7095;51.388;6.196;2023-05-07T04:11:35;38.03;;;25.47;;
14040;SDS011;7095;51.388;6.196;2023-05-07T04:14:04;30.33;;;23.70;;
14040;SDS011;7095;51.388;6.196;2023-05-07T04:16:35;32.40;;;22.23;;
14040;SDS011;7095;51.388;6.196;2023-05-07T04:19:06;33.47;;;23.40;;
14040;SDS011;7095;51.388;6.196;2023-05-07T04:21:37;31.20;;;24.17;;
14040;SDS011;7095;51.388;6.196;2023-05-07T04:24:07;27.20;;;22.43;;
14040;SDS011;7095;51.388;6.196;2023-05-07T04:26:36;29.67;;;24.47;;
14040;SDS011;7095;51.388;6.196;2023-05-07T04:29:05;27.83;;;23.13;;
14040;SDS011;7095;51.388;6.196;2023-05-07T04:31:37;33.07;;;24.73;;
14040;SDS011;7095;51.388;6.196;2023-05-07T04:34:07;29.83;;;24.10;;
14040;SDS011;7095;51.388;6.196;2023-05-07T04:36:37;29.73;;;22.90;;
14040;SDS011;7095;51.388;6.196;2023-05-07T04:39:10;29.70;;;22.30;;
14040;SDS011;7095;51.388;6.196;2023-05-07T04:41:42;27.40;;;24.20;;
14040;SDS011;7095;51.388;6.196;2023-05-07T04:44:12;29.17;;;23.23;;
14040;SDS011;7095;51.388;6.196;2023-05-07T04:46:44;34.03;;;24.57;;
14040;SDS011;7095;51.388;6.196;2023-05-07T04:49:12;28.07;;;24.47;;
14040;SDS011;7095;51.388;6.196;2023-05-07T04:51:42;33.57;;;23.77;;
14040;SDS011;7095;51.388;6.196;2023-05-07T04:54:13;30.00;;;22.80;;
14040;SDS011;7095;51.388;6.196;2023-05-07T04:56:43;26.07;;;22.30;;
14040;SDS011;7095;51.388;6.196;2023-05-07T04:59:12;29.57;;;22.63;;
14040;SDS011;7095;51.388;6.196;2023-05-07T05:01:41;32.27;;;22.63;;
14040;SDS011;7095;51.388;6.196;2023-05-07T05:04:12;28.37;;;21.83;;
14040;SDS011;7095;51.388;6.196;2023-05-07T05:06:41;24.90;;;21.67;;
14040;SDS011;7095;51.388;6.196;2023-05-07T05:09:12;26.47;;;22.07;;
14040;SDS011;7095;51.388;6.196;2023-05-07T05:11:42;26.00;;;21.70;;
14040;SDS011;7095;51.388;6.196;2023-05-07T05:14:11;26.40;;;21.90;;
14040;SDS011;7095;51.388;6.196;2023-05-07T05:16:40;27.27;;;20.93;;
14040;SDS011;7095;51.388;6.196;2023-05-07T05:19:09;26.47;;;20.90;;
14040;SDS011;7095;51.388;6.196;2023-05-07T05:21:40;24.60;;;20.00;;
14040;SDS011;7095;51.388;6.196;2023-05-07T05:24:09;23.70;;;19.73;;
14040;SDS011;7095;51.388;6.196;2023-05-07T05:26:39;25.60;;;20.23;;
14040;SDS011;7095;51.388;6.196;2023-05-07T05:29:07;23.63;;;20.00;;
14040;SDS011;7095;51.388;6.196;2023-05-07T05:31:39;22.97;;;18.60;;
14040;SDS011;7095;51.388;6.196;2023-05-07T05:34:09;22.00;;;17.70;;
14040;SDS011;7095;51.388;6.196;2023-05-07T05:36:38;23.27;;;17.30;;
14040;SDS011;7095;51.388;6.196;2023-05-07T05:39:08;24.53;;;18.73;;
14040;SDS011;7095;51.388;6.196;2023-05-07T05:41:37;21.97;;;17.63;;
14040;SDS011;7095;51.388;6.196;2023-05-07T05:44:07;17.77;;;15.87;;
14040;SDS011;7095;51.388;6.196;2023-05-07T05:46:36;17.70;;;15.80;;
14040;SDS011;7095;51.388;6.196;2023-05-07T05:49:05;20.00;;;17.20;;
14040;SDS011;7095;51.388;6.196;2023-05-07T05:51:34;18.80;;;16.50;;
14040;SDS011;7095;51.388;6.196;2023-05-07T05:54:03;19.13;;;15.20;;
14040;SDS011;7095;51.388;6.196;2023-05-07T05:56:34;17.80;;;15.57;;
14040;SDS011;7095;51.388;6.196;2023-05-07T05:59:06;21.37;;;16.20;;
14040;SDS011;7095;51.388;6.196;2023-05-07T06:01:35;19.40;;;13.97;;
14040;SDS011;7095;51.388;6.196;2023-05-07T06:04:04;15.87;;;14.03;;
14040;SDS011;7095;51.388;6.196;2023-05-07T06:06:33;15.03;;;13.37;;
14040;SDS011;7095;51.388;6.196;2023-05-07T06:09:02;17.43;;;13.33;;
14040;SDS011;7095;51.388;6.196;2023-05-07T06:11:38;15.30;;;13.20;;
14040;SDS011;7095;51.388;6.196;2023-05-07T06:14:09;14.93;;;13.40;;
14040;SDS011;7095;51.388;6.196;2023-05-07T06:16:38;15.67;;;13.30;;
14040;SDS011;7095;51.388;6.196;2023-05-07T06:19:07;14.17;;;12.67;;
14040;SDS011;7095;51.388;6.196;2023-05-07T06:21:38;15.60;;;12.90;;
14040;SDS011;7095;51.388;6.196;2023-05-07T06:24:07;13.00;;;11.70;;
14040;SDS011;7095;51.388;6.196;2023-05-07T06:26:39;13.77;;;12.53;;
14040;SDS011;7095;51.388;6.196;2023-05-07T06:29:08;18.20;;;12.07;;
14040;SDS011;7095;51.388;6.196;2023-05-07T06:31:39;13.43;;;11.87;;
14040;SDS011;7095;51.388;6.196;2023-05-07T06:34:09;14.70;;;11.47;;
14040;SDS011;7095;51.388;6.196;2023-05-07T06:36:41;13.00;;;10.90;;
14040;SDS011;7095;51.388;6.196;2023-05-07T06:39:35;13.90;;;11.83;;
14040;SDS011;7095;51.388;6.196;2023-05-07T06:42:06;13.73;;;12.30;;
14040;SDS011;7095;51.388;6.196;2023-05-07T06:44:40;13.53;;;12.13;;
14040;SDS011;7095;51.388;6.196;2023-05-07T06:47:12;13.20;;;11.47;;
14040;SDS011;7095;51.388;6.196;2023-05-07T06:49:44;12.07;;;10.67;;
14040;SDS011;7095;51.388;6.196;2023-05-07T06:52:16;10.17;;;9.17;;
14040;SDS011;7095;51.388;6.196;2023-05-07T06:54:47;11.37;;;10.20;;
14040;SDS011;7095;51.388;6.196;2023-05-07T06:57:19;12.53;;;9.67;;
14040;SDS011;7095;51.388;6.196;2023-05-07T06:59:47;11.20;;;8.77;;
14040;SDS011;7095;51.388;6.196;2023-05-07T07:02:16;10.27;;;8.53;;
14040;SDS011;7095;51.388;6.196;2023-05-07T07:04:47;9.53;;;8.53;;
14040;SDS011;7095;51.388;6.196;2023-05-07T07:07:16;8.83;;;7.93;;
14040;SDS011;7095;51.388;6.196;2023-05-07T07:09:46;9.70;;;8.10;;
14040;SDS011;7095;51.388;6.196;2023-05-07T07:12:19;7.70;;;7.00;;
14040;SDS011;7095;51.388;6.196;2023-05-07T07:14:49;7.77;;;6.90;;
14040;SDS011;7095;51.388;6.196;2023-05-07T07:17:21;9.63;;;7.43;;
14040;SDS011;7095;51.388;6.196;2023-05-07T07:19:50;7.83;;;7.03;;
14040;SDS011;7095;51.388;6.196;2023-05-07T07:22:19;7.43;;;6.70;;
14040;SDS011;7095;51.388;6.196;2023-05-07T07:24:48;7.47;;;6.23;;
14040;SDS011;7095;51.388;6.196;2023-05-07T07:27:19;7.47;;;6.60;;
14040;SDS011;7095;51.388;6.196;2023-05-07T07:29:48;8.10;;;5.97;;
14040;SDS011;7095;51.388;6.196;2023-05-07T07:32:18;6.53;;;5.80;;
14040;SDS011;7095;51.388;6.196;2023-05-07T07:34:47;10.30;;;5.77;;
14040;SDS011;7095;51.388;6.196;2023-05-07T07:37:16;8.33;;;5.63;;
14040;SDS011;7095;51.388;6.196;2023-05-07T07:39:45;6.67;;;5.97;;
14040;SDS011;7095;51.388;6.196;2023-05-07T07:42:14;6.63;;;6.03;;
14040;SDS011;7095;51.388;6.196;2023-05-07T07:44:45;5.83;;;5.30;;
14040;SDS011;7095;51.388;6.196;2023-05-07T07:47:15;6.30;;;5.33;;
14040;SDS011;7095;51.388;6.196;2023-05-07T07:49:45;9.13;;;6.37;;
14040;SDS011;7095;51.388;6.196;2023-05-07T07:52:14;7.50;;;5.43;;
14040;SDS011;7095;51.388;6.196;2023-05-07T07:54:44;8.37;;;5.77;;
14040;SDS011;7095;51.388;6.196;2023-05-07T07:57:13;8.67;;;6.40;;
14040;SDS011;7095;51.388;6.196;2023-05-07T07:59:42;6.37;;;5.20;;
14040;SDS011;7095;51.388;6.196;2023-05-07T08:02:14;8.27;;;5.63;;
14040;SDS011;7095;51.388;6.196;2023-05-07T08:04:44;6.47;;;5.80;;
14040;SDS011;7095;51.388;6.196;2023-05-07T08:07:13;7.20;;;5.93;;
14040;SDS011;7095;51.388;6.196;2023-05-07T08:09:44;6.80;;;5.50;;
14040;SDS011;7095;51.388;6.196;2023-05-07T08:12:16;10.20;;;6.07;;
14040;SDS011;7095;51.388;6.196;2023-05-07T08:14:46;7.23;;;6.00;;
14040;SDS011;7095;51.388;6.196;2023-05-07T08:17:16;7.47;;;5.30;;
14040;SDS011;7095;51.388;6.196;2023-05-07T08:19:45;11.87;;;5.53;;
14040;SDS011;7095;51.388;6.196;2023-05-07T08:22:15;6.60;;;5.37;;
14040;SDS011;7095;51.388;6.196;2023-05-07T08:24:45;7.80;;;5.47;;
14040;SDS011;7095;51.388;6.196;2023-05-07T08:27:15;6.77;;;5.53;;
14040;SDS011;7095;51.388;6.196;2023-05-07T08:29:43;6.97;;;5.73;;
14040;SDS011;7095;51.388;6.196;2023-05-07T08:32:17;11.17;;;5.63;;
14040;SDS011;7095;51.388;6.196;2023-05-07T08:34:45;7.17;;;5.50;;
14040;SDS011;7095;51.388;6.196;2023-05-07T08:37:14;6.13;;;5.43;;
14040;SDS011;7095;51.388;6.196;2023-05-07T08:39:44;6.00;;;5.40;;
14040;SDS011;7095;51.388;6.196;2023-05-07T08:42:18;6.83;;;5.30;;
14040;SDS011;7095;51.388;6.196;2023-05-07T08:44:52;9.07;;;5.77;;
14040;SDS011;7095;51.388;6.196;2023-05-07T08:47:28;9.20;;;5.17;;
14040;SDS011;7095;51.388;6.196;2023-05-07T08:50:02;6.40;;;5.13;;
14040;SDS011;7095;51.388;6.196;2023-05-07T08:52:33;4.93;;;4.37;;
14040;SDS011;7095;51.388;6.196;2023-05-07T08:55:03;8.63;;;5.60;;
14040;SDS011;7095;51.388;6.196;2023-05-07T08:57:33;7.20;;;5.00;;
14040;SDS011;7095;51.388;6.196;2023-05-07T09:00:13;6.63;;;4.80;;
14040;SDS011;7095;51.388;6.196;2023-05-07T09:02:43;7.83;;;4.90;;
14040;SDS011;7095;51.388;6.196;2023-05-07T09:05:12;6.13;;;4.90;;
14040;SDS011;7095;51.388;6.196;2023-05-07T09:07:42;7.03;;;5.03;;
14040;SDS011;7095;51.388;6.196;2023-05-07T09:10:13;5.17;;;4.53;;
14040;SDS011;7095;51.388;6.196;2023-05-07T09:12:46;7.37;;;4.80;;
14040;SDS011;7095;51.388;6.196;2023-05-07T09:15:17;5.77;;;4.93;;
14040;SDS011;7095;51.388;6.196;2023-05-07T09:17:46;6.00;;;4.90;;
14040;SDS011;7095;51.388;6.196;2023-05-07T09:20:15;8.80;;;4.70;;
14040;SDS011;7095;51.388;6.196;2023-05-07T09:22:45;8.10;;;4.57;;
14040;SDS011;7095;51.388;6.196;2023-05-07T09:25:16;6.33;;;4.73;;
14040;SDS011;7095;51.388;6.196;2023-05-07T09:27:58;7.33;;;4.50;;
14040;SDS011;7095;51.388;6.196;2023-05-07T09:30:29;6.33;;;4.03;;
14040;SDS011;7095;51.388;6.196;2023-05-07T09:33:02;5.13;;;4.27;;
14040;SDS011;7095;51.388;6.196;2023-05-07T09:35:35;9.20;;;4.37;;
14040;SDS011;7095;51.388;6.196;2023-05-07T09:38:10;7.47;;;4.17;;
14040;SDS011;7095;51.388;6.196;2023-05-07T09:40:41;8.27;;;4.30;;
14040;SDS011;7095;51.388;6.196;2023-05-07T09:43:13;9.00;;;4.23;;
14040;SDS011;7095;51.388;6.196;2023-05-07T09:45:49;4.30;;;3.87;;
14040;SDS011;7095;51.388;6.196;2023-05-07T09:48:22;9.43;;;4.60;;
14040;SDS011;7095;51.388;6.196;2023-05-07T09:50:55;5.33;;;4.13;;
14040;SDS011;7095;51.388;6.196;2023-05-07T09:53:29;9.03;;;3.70;;
14040;SDS011;7095;51.388;6.196;2023-05-07T09:56:01;5.10;;;4.03;;
14040;SDS011;7095;51.388;6.196;2023-05-07T09:58:32;6.27;;;3.57;;
14040;SDS011;7095;51.388;6.196;2023-05-07T10:01:08;6.30;;;3.43;;
14040;SDS011;7095;51.388;6.196;2023-05-07T10:03:40;5.10;;;3.93;;
14040;SDS011;7095;51.388;6.196;2023-05-07T10:06:10;8.37;;;4.33;;
14040;SDS011;7095;51.388;6.196;2023-05-07T10:08:41;5.67;;;3.53;;
14040;SDS011;7095;51.388;6.196;2023-05-07T10:11:11;6.03;;;3.40;;
14040;SDS011;7095;51.388;6.196;2023-05-07T10:13:43;4.40;;;2.60;;
14040;SDS011;7095;51.388;6.196;2023-05-07T10:16:16;6.53;;;3.10;;
14040;SDS011;7095;51.388;6.196;2023-05-07T10:18:49;5.00;;;2.87;;
14040;SDS011;7095;51.388;6.196;2023-05-07T10:21:23;3.97;;;3.20;;
14040;SDS011;7095;51.388;6.196;2023-05-07T10:23:58;4.77;;;2.50;;
14040;SDS011;7095;51.388;6.196;2023-05-07T10:26:31;4.07;;;2.67;;
14040;SDS011;7095;51.388;6.196;2023-05-07T10:29:03;3.60;;;2.60;;
14040;SDS011;7095;51.388;6.196;2023-05-07T10:31:45;4.03;;;2.77;;
14040;SDS011;7095;51.388;6.196;2023-05-07T10:34:26;4.43;;;2.60;;
14040;SDS011;7095;51.388;6.196;2023-05-07T10:36:58;3.53;;;2.43;;
14040;SDS011;7095;51.388;6.196;2023-05-07T10:39:29;5.93;;;2.50;;
14040;SDS011;7095;51.388;6.196;2023-05-07T10:42:07;2.40;;;2.20;;
14040;SDS011;7095;51.388;6.196;2023-05-07T10:44:39;4.07;;;2.57;;
14040;SDS011;7095;51.388;6.196;2023-05-07T10:47:16;3.83;;;3.03;;
14040;SDS011;7095;51.388;6.196;2023-05-07T10:56:26;2.23;;;1.77;;
14040;SDS011;7095;51.388;6.196;2023-05-07T11:02:21;3.53;;;3.03;;
14040;SDS011;7095;51.388;6.196;2023-05-07T11:07:54;3.73;;;2.50;;
14040;SDS011;7095;51.388;6.196;2023-05-07T11:10:49;2.97;;;1.80;;
14040;SDS011;7095;51.388;6.196;2023-05-07T11:13:48;3.70;;;2.10;;
14040;SDS011;7095;51.388;6.196;2023-05-07T11:16:34;3.97;;;2.17;;
14040;SDS011;7095;51.388;6.196;2023-05-07T11:22:46;3.33;;;2.80;;
14040;SDS011;7095;51.388;6.196;2023-05-07T11:25:21;4.33;;;2.40;;
14040;SDS011;7095;51.388;6.196;2023-05-07T11:27:56;4.90;;;2.23;;
14040;SDS011;7095;51.388;6.196;2023-05-07T11:30:34;2.43;;;2.13;;
14040;SDS011;7095;51.388;6.196;2023-05-07T11:33:05;4.13;;;2.03;;
14040;SDS011;7095;51.388;6.196;2023-05-07T11:35:35;5.90;;;2.20;;
14040;SDS011;7095;51.388;6.196;2023-05-07T11:38:08;4.03;;;1.80;;
14040;SDS011;7095;51.388;6.196;2023-05-07T11:40:48;2.10;;;1.87;;
14040;SDS011;7095;51.388;6.196;2023-05-07T11:43:17;3.30;;;2.37;;
14040;SDS011;7095;51.388;6.196;2023-05-07T11:45:46;8.80;;;2.30;;
14040;SDS011;7095;51.388;6.196;2023-05-07T11:48:15;4.73;;;2.77;;
14040;SDS011;7095;51.388;6.196;2023-05-07T11:50:52;4.23;;;2.63;;
14040;SDS011;7095;51.388;6.196;2023-05-07T11:53:24;4.07;;;2.20;;
14040;SDS011;7095;51.388;6.196;2023-05-07T11:55:53;4.80;;;2.27;;
14040;SDS011;7095;51.388;6.196;2023-05-07T11:58:24;3.10;;;2.20;;
14040;SDS011;7095;51.388;6.196;2023-05-07T12:00:54;6.47;;;3.07;;
14040;SDS011;7095;51.388;6.196;2023-05-07T12:03:22;4.23;;;2.50;;
14040;SDS011;7095;51.388;6.196;2023-05-07T12:05:52;3.00;;;2.50;;
14040;SDS011;7095;51.388;6.196;2023-05-07T12:08:22;4.30;;;2.70;;
14040;SDS011;7095;51.388;6.196;2023-05-07T12:10:50;3.67;;;2.27;;
14040;SDS011;7095;51.388;6.196;2023-05-07T12:13:20;5.67;;;2.43;;
14040;SDS011;7095;51.388;6.196;2023-05-07T12:15:51;5.20;;;2.90;;
14040;SDS011;7095;51.388;6.196;2023-05-07T12:18:20;3.33;;;2.47;;
14040;SDS011;7095;51.388;6.196;2023-05-07T12:20:49;5.80;;;2.70;;
14040;SDS011;7095;51.388;6.196;2023-05-07T12:23:19;5.87;;;2.93;;
14040;SDS011;7095;51.388;6.196;2023-05-07T12:25:49;5.33;;;2.70;;
14040;SDS011;7095;51.388;6.196;2023-05-07T12:28:18;7.37;;;2.50;;
14040;SDS011;7095;51.388;6.196;2023-05-07T12:30:47;8.97;;;2.77;;
14040;SDS011;7095;51.388;6.196;2023-05-07T12:33:18;6.97;;;3.00;;
14040;SDS011;7095;51.388;6.196;2023-05-07T12:35:53;6.63;;;2.80;;
14040;SDS011;7095;51.388;6.196;2023-05-07T12:38:24;3.47;;;2.50;;
14040;SDS011;7095;51.388;6.196;2023-05-07T12:40:53;4.17;;;2.63;;
14040;SDS011;7095;51.388;6.196;2023-05-07T12:43:24;5.70;;;2.73;;
14040;SDS011;7095;51.388;6.196;2023-05-07T12:45:54;3.70;;;2.93;;
14040;SDS011;7095;51.388;6.196;2023-05-07T12:48:24;3.80;;;2.07;;
14040;SDS011;7095;51.388;6.196;2023-05-07T12:50:54;2.57;;;2.23;;
14040;SDS011;7095;51.388;6.196;2023-05-07T12:53:25;4.47;;;2.37;;
14040;SDS011;7095;51.388;6.196;2023-05-07T12:55:56;3.53;;;1.70;;
14040;SDS011;7095;51.388;6.196;2023-05-07T12:58:26;1.30;;;1.20;;
14040;SDS011;7095;51.388;6.196;2023-05-07T13:00:59;3.03;;;1.70;;
14040;SDS011;7095;51.388;6.196;2023-05-07T13:03:32;2.67;;;1.47;;
14040;SDS011;7095;51.388;6.196;2023-05-07T13:06:03;4.13;;;1.77;;
14040;SDS011;7095;51.388;6.196;2023-05-07T13:08:35;3.57;;;1.90;;
14040;SDS011;7095;51.388;6.196;2023-05-07T13:11:07;1.90;;;1.40;;
14040;SDS011;7095;51.388;6.196;2023-05-07T13:13:37;2.17;;;1.27;;
14040;SDS011;7095;51.388;6.196;2023-05-07T13:16:07;2.87;;;1.60;;
14040;SDS011;7095;51.388;6.196;2023-05-07T13:18:37;2.37;;;1.57;;
14040;SDS011;7095;51.388;6.196;2023-05-07T13:21:07;1.70;;;1.40;;
14040;SDS011;7095;51.388;6.196;2023-05-07T13:23:38;2.53;;;1.87;;
14040;SDS011;7095;51.388;6.196;2023-05-07T13:26:07;3.33;;;1.57;;
14040;SDS011;7095;51.388;6.196;2023-05-07T13:28:52;3.63;;;1.37;;
14040;SDS011;7095;51.388;6.196;2023-05-07T13:31:21;2.03;;;1.17;;
14040;SDS011;7095;51.388;6.196;2023-05-07T13:33:50;3.53;;;1.70;;
14040;SDS011;7095;51.388;6.196;2023-05-07T13:36:19;3.07;;;1.20;;
14040;SDS011;7095;51.388;6.196;2023-05-07T13:38:50;4.57;;;1.67;;
14040;SDS011;7095;51.388;6.196;2023-05-07T13:41:19;2.00;;;1.27;;
14040;SDS011;7095;51.388;6.196;2023-05-07T13:43:48;3.30;;;2.00;;
14040;SDS011;7095;51.388;6.196;2023-05-07T13:46:17;3.07;;;1.93;;
14040;SDS011;7095;51.388;6.196;2023-05-07T13:48:45;3.63;;;1.73;;
14040;SDS011;7095;51.388;6.196;2023-05-07T13:51:14;3.10;;;1.50;;
14040;SDS011;7095;51.388;6.196;2023-05-07T13:53:43;2.20;;;1.77;;
14040;SDS011;7095;51.388;6.196;2023-05-07T13:56:14;3.27;;;1.20;;
14040;SDS011;7095;51.388;6.196;2023-05-07T13:58:43;2.77;;;1.50;;
14040;SDS011;7095;51.388;6.196;2023-05-07T14:01:25;2.73;;;1.80;;
14040;SDS011;7095;51.388;6.196;2023-05-07T14:03:55;4.37;;;1.67;;
14040;SDS011;7095;51.388;6.196;2023-05-07T14:06:25;1.77;;;1.40;;
14040;SDS011;7095;51.388;6.196;2023-05-07T14:08:54;3.20;;;1.90;;
14040;SDS011;7095;51.388;6.196;2023-05-07T14:11:26;2.77;;;2.13;;
14040;SDS011;7095;51.388;6.196;2023-05-07T14:13:55;4.67;;;2.70;;
14040;SDS011;7095;51.388;6.196;2023-05-07T14:16:25;8.30;;;2.87;;
14040;SDS011;7095;51.388;6.196;2023-05-07T14:18:54;4.20;;;2.90;;
14040;SDS011;7095;51.388;6.196;2023-05-07T14:21:24;4.37;;;2.70;;
14040;SDS011;7095;51.388;6.196;2023-05-07T14:23:53;5.67;;;3.00;;
14040;SDS011;7095;51.388;6.196;2023-05-07T14:26:23;4.53;;;2.87;;
14040;SDS011;7095;51.388;6.196;2023-05-07T14:28:55;4.07;;;2.77;;
14040;SDS011;7095;51.388;6.196;2023-05-07T14:31:25;6.13;;;3.00;;
14040;SDS011;7095;51.388;6.196;2023-05-07T14:33:54;4.50;;;2.97;;
14040;SDS011;7095;51.388;6.196;2023-05-07T14:36:25;3.80;;;2.80;;
14040;SDS011;7095;51.388;6.196;2023-05-07T14:38:54;4.30;;;2.63;;
14040;SDS011;7095;51.388;6.196;2023-05-07T14:41:23;5.47;;;3.10;;
14040;SDS011;7095;51.388;6.196;2023-05-07T14:43:53;3.87;;;2.77;;
14040;SDS011;7095;51.388;6.196;2023-05-07T14:46:23;6.73;;;3.20;;
14040;SDS011;7095;51.388;6.196;2023-05-07T14:48:53;3.23;;;2.00;;
14040;SDS011;7095;51.388;6.196;2023-05-07T14:51:22;3.03;;;1.97;;
14040;SDS011;7095;51.388;6.196;2023-05-07T14:53:50;2.87;;;1.50;;
14040;SDS011;7095;51.388;6.196;2023-05-07T14:56:19;4.73;;;1.80;;
14040;SDS011;7095;51.388;6.196;2023-05-07T14:58:48;2.73;;;1.60;;
14040;SDS011;7095;51.388;6.196;2023-05-07T15:01:17;2.40;;;1.57;;
14040;SDS011;7095;51.388;6.196;2023-05-07T15:03:48;4.37;;;1.17;;
14040;SDS011;7095;51.388;6.196;2023-05-07T15:06:17;1.60;;;1.20;;
14040;SDS011;7095;51.388;6.196;2023-05-07T15:08:46;4.57;;;1.20;;
14040;SDS011;7095;51.388;6.196;2023-05-07T15:11:15;4.47;;;1.33;;
14040;SDS011;7095;51.388;6.196;2023-05-07T15:13:44;3.93;;;1.63;;
14040;SDS011;7095;51.388;6.196;2023-05-07T15:16:13;5.40;;;1.90;;
14040;SDS011;7095;51.388;6.196;2023-05-07T15:18:42;3.33;;;1.67;;
14040;SDS011;7095;51.388;6.196;2023-05-07T15:21:12;1.70;;;1.40;;
14040;SDS011;7095;51.388;6.196;2023-05-07T15:23:42;3.87;;;1.87;;
14040;SDS011;7095;51.388;6.196;2023-05-07T15:26:11;3.73;;;1.60;;